Time;durP1;ratioP1;P1;durP2;ratioP2;P2;SDS_P1;SDS_P2;PMS_P1;PMS_P2;Temp;Humidity;BMP_temperature;BMP_pressure;BME280_temperature;BME280_humidity;BME280_pressure;Samples;Min_cycle;Max_cycle;Signal;HPM_P1;HPM_P2
2023/06/05 00:00:22;;;;;;;7.22;2.38;;;;;;;13.79;91.29;102024.69;6227794;28;20427;-70
2023/06/05 00:03:26;;;;;;;5.68;1.75;;;;;;;13.83;90.47;102018.34;6228021;28;20050;-70
2023/06/05 00:06:29;;;;;;;2.28;1.50;;;;;;;13.70;90.41;102013.63;6226952;28;20045;-70
2023/06/05 00:09:30;;;;;;;1.85;1.50;;;;;;;13.71;91.10;102017.09;6227303;28;20071;-70
2023/06/05 00:12:32;;;;;;;4.88;1.77;;;;;;;13.64;91.62;102016.56;6228685;28;20061;-70
2023/06/05 00:15:35;;;;;;;4.18;2.28;;;;;;;13.57;93.34;102008.97;6227824;28;20423;-71
2023/06/05 00:18:36;;;;;;;2.25;1.65;;;;;;;13.54;91.27;102006.50;6228291;28;20052;-70
2023/06/05 00:21:39;;;;;;;8.13;1.98;;;;;;;13.46;93.88;102012.09;6227307;28;20237;-70
2023/06/05 00:24:40;;;;;;;4.22;1.88;;;;;;;13.49;93.00;102011.09;6227677;28;20358;-70
2023/06/05 00:27:42;;;;;;;2.65;1.60;;;;;;;13.44;93.82;102012.19;6227886;28;20061;-70
2023/06/05 00:30:43;;;;;;;2.75;1.80;;;;;;;13.46;93.18;102009.47;6226314;28;20053;-70
2023/06/05 00:33:45;;;;;;;3.47;2.10;;;;;;;13.38;94.45;102007.16;6227466;28;20438;-70
2023/06/05 00:36:50;;;;;;;3.53;1.70;;;;;;;13.42;93.53;102002.59;6227521;28;20049;-70
2023/06/05 00:39:51;;;;;;;4.70;1.80;;;;;;;13.42;93.26;102003.47;6226973;28;20050;-70
2023/06/05 00:42:53;;;;;;;5.53;2.42;;;;;;;13.35;93.79;102002.03;6227333;28;20355;-70
2023/06/05 00:46:02;;;;;;;9.60;2.13;;;;;;;13.29;94.46;102004.94;6227118;28;20061;-70
2023/06/05 00:49:04;;;;;;;5.28;2.33;;;;;;;13.25;94.52;102008.63;6227274;28;20350;-70
2023/06/05 00:52:07;;;;;;;10.52;2.13;;;;;;;13.25;94.19;102005.13;6226449;28;20053;-71
2023/06/05 00:55:09;;;;;;;3.97;1.70;;;;;;;13.19;95.31;102001.81;6227018;28;20057;-70
2023/06/05 00:58:11;;;;;;;2.03;1.30;;;;;;;13.16;94.79;101999.31;6227236;28;20447;-71
2023/06/05 01:01:12;;;;;;;2.85;1.70;;;;;;;13.08;94.89;102000.56;6226540;28;20053;-71
2023/06/05 01:04:14;;;;;;;3.35;1.95;;;;;;;12.94;96.66;102002.03;6227176;28;20057;-71
2023/06/05 01:07:17;;;;;;;6.63;2.63;;;;;;;12.75;98.45;101997.59;6226690;28;20461;-70
2023/06/05 01:10:19;;;;;;;2.92;1.88;;;;;;;12.82;97.93;102006.97;6226424;28;20060;-71
2023/06/05 01:13:32;;;;;;;6.53;2.30;;;;;;;12.85;98.24;102001.56;6226896;28;20065;-71
2023/06/05 01:16:34;;;;;;;6.38;2.38;;;;;;;12.87;97.94;101997.94;6226524;28;20038;-71
2023/06/05 01:19:36;;;;;;;6.97;2.38;;;;;;;12.90;97.01;101999.59;6225998;28;20057;-71
2023/06/05 01:22:38;;;;;;;3.33;1.98;;;;;;;12.89;97.20;102000.50;6226124;28;20042;-71
2023/06/05 01:25:41;;;;;;;4.88;2.38;;;;;;;12.85;97.15;102002.44;6226633;28;20049;-71
2023/06/05 01:28:48;;;;;;;4.82;2.38;;;;;;;12.78;98.86;101997.47;6226546;28;20099;-71
2023/06/05 01:31:51;;;;;;;9.23;2.80;;;;;;;12.78;98.67;101986.94;6225846;28;20057;-71
2023/06/05 01:34:54;;;;;;;3.65;2.10;;;;;;;12.82;98.17;101988.50;6226044;28;20050;-71
2023/06/05 01:37:59;;;;;;;5.22;2.45;;;;;;;12.73;98.27;101986.28;6226451;28;20427;-71
2023/06/05 01:41:03;;;;;;;12.45;2.83;;;;;;;12.61;98.66;101982.34;6225703;28;20453;-71
2023/06/05 01:44:08;;;;;;;5.25;2.55;;;;;;;12.57;100.00;101984.25;6225998;28;20058;-71
2023/06/05 01:47:10;;;;;;;8.35;2.38;;;;;;;12.57;100.00;101981.63;6225720;28;20058;-71
2023/06/05 01:50:12;;;;;;;4.60;2.45;;;;;;;12.54;100.00;101979.13;6225497;28;20062;-71
2023/06/05 01:53:16;;;;;;;4.35;2.78;;;;;;;12.60;100.00;101973.59;6226119;28;20236;-71
2023/06/05 01:56:20;;;;;;;6.38;2.40;;;;;;;12.62;99.88;101981.41;6226110;28;20077;-71
2023/06/05 01:59:21;;;;;;;4.95;2.58;;;;;;;12.56;100.00;101979.06;6225221;28;20479;-71
2023/06/05 02:02:23;;;;;;;6.32;2.80;;;;;;;12.46;99.92;101980.38;6225928;28;20049;-71
2023/06/05 02:05:28;;;;;;;4.18;2.35;;;;;;;12.43;100.00;101978.69;6223988;28;20046;-71
2023/06/05 02:08:30;;;;;;;11.07;3.50;;;;;;;12.32;100.00;101976.50;6226134;28;20054;-71
2023/06/05 02:11:33;;;;;;;5.68;3.03;;;;;;;12.31;100.00;101979.19;6225300;28;20050;-71
2023/06/05 02:14:35;;;;;;;3.60;2.65;;;;;;;12.37;100.00;101977.19;6225483;28;20050;-71
2023/06/05 02:17:36;;;;;;;6.68;3.95;;;;;;;12.30;100.00;101977.50;6225560;28;20189;-71
2023/06/05 02:20:37;;;;;;;6.35;2.47;;;;;;;12.34;100.00;101976.44;6224941;28;20049;-71
2023/06/05 02:23:39;;;;;;;4.25;2.38;;;;;;;12.29;100.00;101971.34;6225720;28;20054;-71
2023/06/05 02:26:41;;;;;;;4.30;2.58;;;;;;;12.23;100.00;101976.88;6225424;28;20069;-71
2023/06/05 02:29:43;;;;;;;7.63;2.85;;;;;;;12.20;100.00;101974.38;6225116;28;20058;-71
2023/06/05 02:32:44;;;;;;;6.85;2.97;;;;;;;12.02;100.00;101968.06;6225641;28;20057;-71
2023/06/05 02:35:45;;;;;;;8.77;3.00;;;;;;;12.06;100.00;101976.72;6225655;28;20457;-71
2023/06/05 02:38:49;;;;;;;7.28;3.28;;;;;;;11.88;100.00;101971.25;6225524;28;20053;-71
2023/06/05 02:41:52;;;;;;;6.68;2.70;;;;;;;11.92;100.00;101962.31;6224865;28;20076;-71
2023/06/05 02:44:53;;;;;;;5.80;3.20;;;;;;;11.96;100.00;101970.09;6225398;28;20050;-71
2023/06/05 02:47:57;;;;;;;5.45;2.72;;;;;;;11.98;100.00;101971.72;6224978;28;20049;-71
2023/06/05 02:50:58;;;;;;;5.00;3.05;;;;;;;11.87;100.00;101966.91;6222447;28;20343;-70
2023/06/05 02:54:00;;;;;;;7.82;3.28;;;;;;;11.88;100.00;101968.59;6226483;28;20050;-71
2023/06/05 02:57:06;;;;;;;8.85;3.65;;;;;;;11.92;100.00;101969.34;6230093;28;20451;-71
2023/06/05 03:00:09;;;;;;;5.70;3.03;;;;;;;11.82;100.00;101962.69;6228993;28;20046;-71
2023/06/05 03:03:12;;;;;;;7.07;2.70;;;;;;;11.80;100.00;101959.25;6229725;28;20053;-71
2023/06/05 03:06:17;;;;;;;6.05;3.30;;;;;;;11.73;100.00;101960.41;6229743;28;20057;-71
2023/06/05 03:09:18;;;;;;;7.15;2.90;;;;;;;11.56;100.00;101956.66;6229247;28;20068;-71
2023/06/05 03:12:21;;;;;;;6.28;2.92;;;;;;;11.51;100.00;101955.97;6230117;28;20427;-71
2023/06/05 03:15:23;;;;;;;6.57;3.47;;;;;;;11.63;100.00;101954.66;6228825;28;20053;-71
2023/06/05 03:18:25;;;;;;;8.15;3.15;;;;;;;11.69;100.00;101950.00;6229305;28;20065;-70
2023/06/05 03:21:26;;;;;;;7.95;3.65;;;;;;;11.71;100.00;101949.94;6228578;28;20092;-71
2023/06/05 03:24:28;;;;;;;6.43;3.47;;;;;;;11.74;100.00;101949.81;6229500;28;20458;-71
2023/06/05 03:27:30;;;;;;;8.25;3.88;;;;;;;11.70;100.00;101950.84;6228827;28;20048;-71
2023/06/05 03:30:32;;;;;;;7.15;4.10;;;;;;;11.68;100.00;101955.34;6228670;28;20446;-70
2023/06/05 03:33:33;;;;;;;11.00;4.03;;;;;;;11.66;100.00;101954.53;6229039;28;20049;-71
2023/06/05 03:36:37;;;;;;;7.40;3.60;;;;;;;11.63;100.00;101950.25;6228869;28;20042;-71
2023/06/05 03:39:39;;;;;;;10.90;4.03;;;;;;;11.65;100.00;101963.34;6228451;28;20133;-70
2023/06/05 03:42:41;;;;;;;8.95;3.97;;;;;;;11.65;100.00;101960.72;6229209;28;20057;-71
2023/06/05 03:45:43;;;;;;;6.22;2.88;;;;;;;11.68;100.00;101960.59;6228570;28;20061;-71
2023/06/05 03:48:44;;;;;;;5.43;2.85;;;;;;;11.62;100.00;101956.41;6227638;28;20458;-71
2023/06/05 03:51:46;;;;;;;7.20;3.40;;;;;;;11.58;100.00;101961.84;6227406;28;20328;-71
2023/06/05 03:54:50;;;;;;;7.30;3.90;;;;;;;11.53;100.00;101953.28;6222493;28;20441;-71
2023/06/05 03:57:53;;;;;;;6.65;3.53;;;;;;;11.54;100.00;101955.88;6221473;28;20045;-71
2023/06/05 04:00:54;;;;;;;8.20;3.47;;;;;;;11.60;100.00;101960.88;6226488;28;20072;-71
2023/06/05 04:03:56;;;;;;;6.63;3.58;;;;;;;11.66;100.00;101957.16;6224566;28;20048;-71
2023/06/05 04:06:57;;;;;;;10.05;3.60;;;;;;;11.65;100.00;101965.97;6224199;28;20038;-71
2023/06/05 04:09:59;;;;;;;9.25;4.03;;;;;;;11.64;100.00;101961.63;6225622;28;20148;-71
2023/06/05 04:13:02;;;;;;;6.20;3.20;;;;;;;11.63;100.00;101958.16;6226769;28;20053;-71
2023/06/05 04:16:05;;;;;;;8.70;3.85;;;;;;;11.61;100.00;101957.31;6224846;28;20042;-71
2023/06/05 04:19:07;;;;;;;8.50;3.80;;;;;;;11.60;100.00;101962.66;6222725;28;20045;-70
2023/06/05 04:22:08;;;;;;;7.03;3.65;;;;;;;11.57;100.00;101961.00;6222306;28;20434;-70
2023/06/05 04:25:10;;;;;;;7.18;4.10;;;;;;;11.50;100.00;101964.78;6222922;28;20691;-70
2023/06/05 04:28:15;;;;;;;10.02;4.10;;;;;;;11.48;100.00;101965.75;6223500;28;20354;-70
2023/06/05 04:31:16;;;;;;;9.55;3.88;;;;;;;11.48;100.00;101971.00;6226293;28;20050;-70
2023/06/05 04:34:18;;;;;;;7.68;4.38;;;;;;;11.40;100.00;101964.28;6226327;28;20057;-70
2023/06/05 04:37:19;;;;;;;8.35;4.20;;;;;;;11.42;100.00;101966.84;6221790;28;20049;-70
2023/06/05 04:40:20;;;;;;;9.90;4.47;;;;;;;11.42;100.00;101964.22;6221407;28;20339;-71
2023/06/05 04:43:23;;;;;;;11.00;3.67;;;;;;;11.54;100.00;101961.13;6216993;28;20041;-71
2023/06/05 04:46:25;;;;;;;12.48;4.20;;;;;;;11.58;100.00;101956.59;6220768;28;20046;-70
2023/06/05 04:49:28;;;;;;;6.78;3.67;;;;;;;11.45;100.00;101958.00;6226423;28;20058;-70
2023/06/05 04:52:30;;;;;;;8.55;4.68;;;;;;;11.46;100.00;101957.06;6227651;28;20124;-71
2023/06/05 04:55:32;;;;;;;7.68;4.10;;;;;;;11.53;100.00;101958.53;6226701;28;20046;-70
2023/06/05 04:58:34;;;;;;;10.90;4.25;;;;;;;11.40;100.00;101956.38;6227126;28;20053;-70
2023/06/05 05:01:36;;;;;;;10.65;4.15;;;;;;;11.48;100.00;101963.13;6226398;28;20053;-70
2023/06/05 05:04:38;;;;;;;7.95;3.80;;;;;;;11.51;100.00;101953.34;6226998;28;20180;-70
2023/06/05 05:07:40;;;;;;;10.43;4.28;;;;;;;11.44;100.00;101959.72;6226797;28;20045;-70
2023/06/05 05:10:42;;;;;;;8.85;4.18;;;;;;;11.56;100.00;101955.78;6226426;28;20042;-71
2023/06/05 05:13:45;;;;;;;11.18;5.03;;;;;;;11.69;100.00;101951.78;6227258;28;20050;-71
2023/06/05 05:16:46;;;;;;;9.90;4.13;;;;;;;11.72;100.00;101951.66;6225810;28;20057;-71
2023/06/05 05:19:47;;;;;;;8.15;4.28;;;;;;;11.77;100.00;101946.22;6225762;28;20054;-70
2023/06/05 05:22:49;;;;;;;8.95;3.90;;;;;;;11.74;100.00;101954.22;6226763;28;20054;-70
2023/06/05 05:25:51;;;;;;;8.88;3.78;;;;;;;11.82;100.00;101955.69;6226542;28;20046;-71
2023/06/05 05:28:54;;;;;;;7.40;4.07;;;;;;;11.86;100.00;101959.06;6226260;28;20049;-70
2023/06/05 05:31:55;;;;;;;12.30;4.32;;;;;;;11.91;100.00;101959.75;6225906;28;20058;-70
2023/06/05 05:34:57;;;;;;;7.80;3.95;;;;;;;11.91;100.00;101960.59;6226120;28;20351;-70
2023/06/05 05:37:58;;;;;;;10.60;4.72;;;;;;;11.94;100.00;101959.59;6226583;28;20129;-70
2023/06/05 05:41:00;;;;;;;9.57;4.93;;;;;;;12.01;100.00;101957.59;6225514;28;20045;-71
2023/06/05 05:44:02;;;;;;;12.10;4.82;;;;;;;12.02;100.00;101959.31;6226136;28;20050;-71
2023/06/05 05:47:05;;;;;;;11.13;4.25;;;;;;;12.14;100.00;101956.19;6225980;28;20046;-71
2023/06/05 05:50:07;;;;;;;11.18;4.45;;;;;;;12.21;100.00;101956.78;6225378;28;20053;-71
2023/06/05 05:53:08;;;;;;;14.63;4.50;;;;;;;12.29;100.00;101955.53;6218230;28;20050;-71
2023/06/05 05:56:10;;;;;;;9.20;4.32;;;;;;;12.29;100.00;101959.97;6225792;28;20060;-71
2023/06/05 05:59:12;;;;;;;9.30;4.93;;;;;;;12.32;100.00;101962.47;6225349;28;20050;-71
2023/06/05 06:02:14;;;;;;;7.03;3.65;;;;;;;12.34;100.00;101964.13;6223689;28;20061;-71
2023/06/05 06:05:15;;;;;;;6.88;3.53;;;;;;;12.42;100.00;101964.66;6225952;28;20605;-71
2023/06/05 06:08:17;;;;;;;6.03;3.33;;;;;;;12.47;100.00;101964.47;6225057;28;20085;-71
2023/06/05 06:11:19;;;;;;;9.82;4.30;;;;;;;12.49;100.00;101964.41;6225091;28;20132;-71
2023/06/05 06:14:22;;;;;;;5.68;3.67;;;;;;;12.58;100.00;101964.00;6225486;28;20458;-71
2023/06/05 06:17:23;;;;;;;7.57;4.13;;;;;;;12.65;100.00;101973.41;6225417;28;20108;-71
2023/06/05 06:20:27;;;;;;;10.00;4.30;;;;;;;12.76;100.00;101972.94;6225064;28;20537;-71
2023/06/05 06:23:29;;;;;;;8.95;3.50;;;;;;;12.79;100.00;101973.66;6225556;28;20050;-71
2023/06/05 06:26:30;;;;;;;8.80;3.53;;;;;;;12.85;100.00;101969.91;6222357;28;20057;-71
2023/06/05 06:29:33;;;;;;;10.20;3.90;;;;;;;12.90;100.00;101973.22;6227220;28;20046;-71
2023/06/05 06:32:35;;;;;;;5.82;3.15;;;;;;;12.96;100.00;101972.94;6230562;28;20050;-71
2023/06/05 06:35:36;;;;;;;6.70;4.03;;;;;;;13.02;100.00;101969.16;6230220;28;20057;-71
2023/06/05 06:38:37;;;;;;;9.50;3.30;;;;;;;13.03;100.00;101968.25;6230262;28;20347;-71
2023/06/05 06:41:39;;;;;;;5.40;3.08;;;;;;;13.09;100.00;101975.91;6229642;28;20053;-71
2023/06/05 06:44:42;;;;;;;5.55;2.95;;;;;;;13.21;100.00;101977.97;6220576;28;20526;-71
2023/06/05 06:47:44;;;;;;;8.85;3.60;;;;;;;13.26;100.00;101975.16;6227219;28;20049;-71
2023/06/05 06:50:45;;;;;;;8.23;3.75;;;;;;;13.43;100.00;101977.91;6229718;28;20053;-71
2023/06/05 06:53:46;;;;;;;8.70;3.80;;;;;;;13.50;100.00;101979.34;6229479;28;20053;-71
2023/06/05 06:56:49;;;;;;;6.55;3.35;;;;;;;13.51;100.00;101986.34;6224895;28;20431;-71
2023/06/05 06:59:53;;;;;;;4.85;2.58;;;;;;;13.54;100.00;101988.00;6229329;28;20053;-71
2023/06/05 07:02:54;;;;;;;6.60;3.58;;;;;;;13.58;100.00;101979.88;6229757;28;20049;-71
2023/06/05 07:05:56;;;;;;;11.18;2.97;;;;;;;13.63;100.00;101984.94;6230158;28;20419;-71
2023/06/05 07:08:57;;;;;;;9.23;3.30;;;;;;;13.69;100.00;101980.22;6229176;28;20046;-71
2023/06/05 07:12:04;;;;;;;6.90;2.70;;;;;;;13.73;100.00;101988.00;6229007;28;20358;-72
2023/06/05 07:15:08;;;;;;;9.88;3.80;;;;;;;13.78;100.00;101989.50;6219390;28;20140;-71
2023/06/05 07:18:10;;;;;;;12.02;3.75;;;;;;;13.84;100.00;101990.97;6222153;28;20057;-71
2023/06/05 07:21:12;;;;;;;25.80;5.22;;;;;;;13.81;100.00;101991.16;6226021;28;20056;-70
2023/06/05 07:24:14;;;;;;;12.18;4.47;;;;;;;13.92;100.00;101984.41;6227366;28;20045;-70
2023/06/05 07:27:16;;;;;;;6.85;2.75;;;;;;;13.97;100.00;101984.19;6222489;28;20041;-70
2023/06/05 07:30:18;;;;;;;4.30;2.45;;;;;;;14.04;100.00;101985.63;6226548;28;20179;-70
2023/06/05 07:33:20;;;;;;;7.22;3.55;;;;;;;14.09;100.00;101980.13;6228038;28;20069;-70
2023/06/05 07:36:22;;;;;;;6.82;3.25;;;;;;;14.09;100.00;101982.75;6226348;28;20383;-70
2023/06/05 07:39:24;;;;;;;11.23;4.20;;;;;;;14.16;100.00;101987.66;6227548;28;20358;-70
2023/06/05 07:42:25;;;;;;;4.93;3.00;;;;;;;14.26;100.00;101976.63;6229111;28;20065;-70
2023/06/05 07:45:28;;;;;;;4.82;2.85;;;;;;;14.31;100.00;101974.66;6228535;28;21326;-70
2023/06/05 07:48:30;;;;;;;4.80;2.78;;;;;;;14.37;100.00;101980.47;6228600;28;20441;-70
2023/06/05 07:51:35;;;;;;;5.60;2.78;;;;;;;14.48;100.00;101987.91;6225018;28;20041;-70
2023/06/05 07:54:36;;;;;;;5.10;2.80;;;;;;;14.53;100.00;101980.59;6228788;28;20132;-74
2023/06/05 07:57:38;;;;;;;4.20;2.30;;;;;;;14.63;99.40;101983.66;6228704;28;20046;-70
2023/06/05 08:00:47;;;;;;;5.90;2.72;;;;;;;14.70;100.00;101977.09;6227803;28;20057;-70
2023/06/05 08:03:48;;;;;;;;;;;;;;;14.77;100.00;101977.66;6229035;28;20046;-70
2023/06/05 08:06:50;;;;;;;4.05;2.65;;;;;;;14.85;96.91;101976.31;6224109;28;19928;-70
2023/06/05 08:09:51;;;;;;;4.22;2.50;;;;;;;14.97;94.70;101970.38;6222020;28;20054;-70
2023/06/05 08:12:52;;;;;;;4.38;2.40;;;;;;;14.99;94.92;101970.31;6225713;28;20358;-70
2023/06/05 08:15:55;;;;;;;4.53;2.50;;;;;;;15.05;95.00;101969.97;6227358;28;20061;-71
2023/06/05 08:18:57;;;;;;;6.13;3.05;;;;;;;15.19;91.72;101966.59;6222098;28;20057;-70
2023/06/05 08:21:58;;;;;;;5.85;2.38;;;;;;;15.21;92.10;101968.25;6219188;28;20137;-70
2023/06/05 08:25:00;;;;;;;5.15;1.77;;;;;;;15.22;93.83;101962.00;6222061;28;20057;-70
2023/06/05 08:28:01;;;;;;;8.80;2.30;;;;;;;15.26;94.26;101968.00;6226150;28;20128;-70
2023/06/05 08:31:05;;;;;;;3.78;2.30;;;;;;;15.41;92.78;101969.81;6226893;28;20050;-69
2023/06/05 08:34:07;;;;;;;3.90;2.17;;;;;;;15.47;91.28;101961.53;6227257;28;20064;-70
2023/06/05 08:37:08;;;;;;;5.50;2.10;;;;;;;15.55;92.90;101947.88;6223184;28;20457;-70
2023/06/05 08:40:12;;;;;;;3.80;1.98;;;;;;;15.60;92.35;101947.63;6223568;28;20046;-70
2023/06/05 08:43:13;;;;;;;8.40;2.38;;;;;;;15.76;90.47;101947.63;6226398;28;20053;-70
2023/06/05 08:46:17;;;;;;;4.68;2.13;;;;;;;15.86;87.58;101951.50;6226623;28;20045;-70
2023/06/05 08:49:24;;;;;;;6.57;1.92;;;;;;;15.96;88.48;101947.38;6223309;28;20096;-70
2023/06/05 08:52:29;;;;;;;6.88;2.92;;;;;;;16.03;90.33;101939.91;6224595;28;20053;-70
2023/06/05 08:55:31;;;;;;;6.35;2.55;;;;;;;16.13;90.37;101931.38;6218667;28;20046;-71
2023/06/05 08:58:33;;;;;;;4.25;2.45;;;;;;;16.24;90.48;101933.38;6222919;28;20120;-71
2023/06/05 09:01:37;;;;;;;7.82;2.38;;;;;;;16.33;90.63;101932.00;6221510;28;20042;-70
2023/06/05 09:04:39;;;;;;;3.97;2.10;;;;;;;16.45;87.37;101931.28;6226003;28;20357;-69
2023/06/05 09:07:41;;;;;;;3.70;2.42;;;;;;;16.43;85.85;101930.50;6225739;28;20046;-70
2023/06/05 09:10:42;;;;;;;4.38;1.98;;;;;;;16.53;83.42;101925.50;6225397;28;20067;-70
2023/06/05 09:13:46;;;;;;;4.00;1.92;;;;;;;16.55;82.53;101927.13;6220642;28;20426;-71
2023/06/05 09:16:48;;;;;;;6.63;2.22;;;;;;;16.81;85.59;101922.09;6218459;28;20049;-70
2023/06/05 09:19:51;;;;;;;3.78;1.48;;;;;;;16.87;83.98;101919.06;6224355;28;20046;-70
2023/06/05 09:22:52;;;;;;;4.05;1.92;;;;;;;17.02;85.47;101923.44;6226818;28;20062;-70
2023/06/05 09:25:55;;;;;;;4.15;2.58;;;;;;;17.19;82.18;101930.34;6226588;28;20046;-69
2023/06/05 09:28:57;;;;;;;6.78;1.73;;;;;;;17.18;81.86;101924.19;6222468;28;20053;-70
2023/06/05 09:32:01;;;;;;;6.15;1.95;;;;;;;17.21;79.28;101925.78;6225866;28;20446;-70
2023/06/05 09:35:05;;;;;;;2.75;1.42;;;;;;;17.29;80.55;101925.31;6219123;28;20197;-70
2023/06/05 09:38:26;;;;;;;5.13;1.98;;;;;;;17.35;74.52;101922.28;6224259;28;20849;-70
2023/06/05 09:41:28;;;;;;;5.65;1.88;;;;;;;17.38;74.70;101914.13;6223249;28;20508;-69
2023/06/05 09:44:31;;;;;;;6.47;2.70;;;;;;;17.42;77.81;101918.28;6226006;28;20050;-70
2023/06/05 09:47:33;;;;;;;2.42;1.48;;;;;;;17.54;77.88;101911.34;6225917;28;20049;-69
2023/06/05 09:50:36;;;;;;;2.03;1.35;;;;;;;17.64;79.35;101920.44;6224261;28;20051;-69
2023/06/05 09:53:42;;;;;;;3.85;1.85;;;;;;;17.80;75.05;101913.19;6222874;28;20037;-70
2023/06/05 09:56:48;;;;;;;4.28;1.70;;;;;;;18.03;76.53;101902.84;6222120;28;20132;-70
2023/06/05 09:59:53;;;;;;;3.80;1.65;;;;;;;18.10;76.43;101901.50;6222714;28;20049;-70
2023/06/05 10:02:58;;;;;;;3.40;1.58;;;;;;;18.25;72.28;101898.66;6224847;28;20179;-70
2023/06/05 10:06:00;;;;;;;3.22;1.73;;;;;;;18.35;71.31;101898.03;6225419;28;20450;-70
2023/06/05 10:09:02;;;;;;;2.05;1.30;;;;;;;18.42;74.46;101897.50;6225441;28;20129;-70
2023/06/05 10:12:04;;;;;;;1.40;1.20;;;;;;;18.46;72.35;101888.38;6224617;28;20052;-70
2023/06/05 10:15:07;;;;;;;2.60;1.60;;;;;;;18.45;73.16;101899.13;6225359;28;20057;-70
2023/06/05 10:18:11;;;;;;;6.03;1.73;;;;;;;18.63;73.15;101889.88;6225478;28;20042;-71
2023/06/05 10:21:13;;;;;;;6.97;1.80;;;;;;;18.69;72.95;101893.94;6224875;28;20050;-70
2023/06/05 10:24:19;;;;;;;4.70;1.75;;;;;;;18.87;72.30;101884.69;6225439;28;20069;-69
2023/06/05 10:27:44;;;;;;;1.92;1.38;;;;;;;19.15;66.15;101886.25;6225404;28;20359;-70
2023/06/05 10:31:10;;;;;;;2.47;1.55;;;;;;;18.95;69.24;101885.00;6224036;28;20050;-70
2023/06/05 10:34:32;;;;;;;2.80;1.75;;;;;;;19.13;68.40;101880.19;6223386;28;20346;-74
2023/06/05 10:37:48;;;;;;;2.08;1.00;;;;;;;19.24;65.73;101874.91;6224547;28;20046;-73
2023/06/05 10:40:53;;;;;;;3.60;1.50;;;;;;;19.26;62.36;101869.50;6220784;28;20053;-73
2023/06/05 10:43:55;;;;;;;1.10;0.88;;;;;;;19.38;55.16;101863.25;6225435;28;20053;-71
2023/06/05 10:46:56;;;;;;;1.38;0.80;;;;;;;19.32;59.62;101862.88;6225339;28;20057;-72
2023/06/05 10:50:22;;;;;;;3.22;1.48;;;;;;;19.62;62.56;101855.34;6223242;28;20042;-74
2023/06/05 10:53:42;;;;;;;2.58;1.10;;;;;;;19.74;59.07;101848.22;6219162;28;20125;-74
2023/06/05 10:56:58;;;;;;;3.25;1.38;;;;;;;19.70;58.46;101849.41;6225299;28;20413;-73
2023/06/05 11:00:09;;;;;;;2.75;1.40;;;;;;;19.90;59.69;101846.13;6220356;28;20050;-73
2023/06/05 11:03:10;;;;;;;1.88;1.30;;;;;;;20.16;57.23;101844.13;6222508;28;20142;-74
2023/06/05 11:06:13;;;;;;;2.35;1.50;;;;;;;20.54;54.92;101847.53;6224785;28;20370;-75
2023/06/05 11:09:16;;;;;;;1.60;1.02;;;;;;;20.55;52.51;101835.88;6224210;28;20042;-73
2023/06/05 11:12:17;;;;;;;1.50;1.10;;;;;;;20.46;49.82;101832.06;6224874;28;20066;-73
2023/06/05 11:15:37;;;;;;;3.88;1.00;;;;;;;20.39;51.45;101836.16;6225296;28;20469;-74
2023/06/05 11:18:40;;;;;;;2.05;1.10;;;;;;;20.54;55.78;101836.84;6229478;28;20125;-75
2023/06/05 11:22:05;;;;;;;2.38;1.08;;;;;;;20.79;55.78;101828.59;6228925;28;20137;-73
2023/06/05 11:25:27;;;;;;;1.17;0.77;;;;;;;20.87;50.39;101828.00;6228133;28;20053;-74
2023/06/05 11:28:38;;;;;;;1.05;0.60;;;;;;;20.84;46.90;101826.41;6224586;28;20057;-73
2023/06/05 11:31:39;;;;;;;1.63;0.82;;;;;;;21.04;46.39;101830.16;6226522;28;20046;-72
2023/06/05 11:34:45;;;;;;;1.73;1.00;;;;;;;21.44;47.05;101818.94;6228830;28;20053;-73
2023/06/05 11:37:48;;;;;;;1.65;1.02;;;;;;;21.51;47.23;101818.28;6228831;28;20057;-74
2023/06/05 11:40:50;;;;;;;1.33;1.00;;;;;;;21.66;46.05;101821.50;6228308;28;20352;-73
2023/06/05 11:43:51;;;;;;;1.30;0.80;;;;;;;22.27;41.26;101810.19;6228598;28;20050;-74
2023/06/05 11:46:52;;;;;;;1.92;0.80;;;;;;;22.54;37.99;101814.97;6228121;28;20046;-73
2023/06/05 11:49:54;;;;;;;2.33;0.80;;;;;;;22.56;38.36;101807.63;6226851;28;20347;-73
2023/06/05 11:53:05;;;;;;;2.03;0.88;;;;;;;22.50;39.61;101808.19;6228285;28;20050;-74
2023/06/05 11:56:15;;;;;;;1.27;0.88;;;;;;;22.86;39.96;101797.91;6228450;28;20340;-74
2023/06/05 11:59:17;;;;;;;2.65;0.93;;;;;;;23.17;37.64;101796.88;6227681;28;20046;-74
2023/06/05 12:02:22;;;;;;;1.10;0.80;;;;;;;23.44;37.45;101796.22;6227262;28;20137;-74
2023/06/05 12:05:23;;;;;;;2.03;0.88;;;;;;;23.54;35.98;101801.59;6228036;28;20132;-74
2023/06/05 12:08:29;;;;;;;1.40;0.90;;;;;;;23.55;34.92;101798.75;6228346;28;20046;-75
2023/06/05 12:11:30;;;;;;;2.42;0.90;;;;;;;23.73;37.39;101792.72;6227837;28;20126;-75
2023/06/05 12:14:33;;;;;;;1.75;0.98;;;;;;;24.04;36.98;101790.72;6228109;28;20057;-72
2023/06/05 12:17:34;;;;;;;2.08;0.90;;;;;;;24.25;35.67;101790.50;6227977;28;20042;-70
2023/06/05 12:20:39;;;;;;;0.98;0.85;;;;;;;24.47;35.44;101787.50;6227282;28;20042;-73
2023/06/05 12:23:42;;;;;;;1.55;0.90;;;;;;;24.63;34.84;101792.25;6228177;28;20450;-73
2023/06/05 12:26:53;;;;;;;2.35;1.00;;;;;;;24.63;35.45;101788.72;6227745;28;20575;-73
2023/06/05 12:29:55;;;;;;;0.82;0.80;;;;;;;24.59;35.77;101774.72;6227107;28;20050;-74
2023/06/05 12:33:04;;;;;;;2.17;0.90;;;;;;;24.58;35.29;101785.66;6227953;28;20057;-74
2023/06/05 12:36:06;;;;;;;4.60;1.20;;;;;;;24.80;35.70;101780.72;6227367;28;20196;-74
2023/06/05 12:39:10;;;;;;;1.88;1.10;;;;;;;24.79;36.13;101768.25;6227885;28;20050;-74
2023/06/05 12:42:12;;;;;;;0.85;0.68;;;;;;;24.97;37.30;101778.22;6227601;28;20061;-74
2023/06/05 12:45:14;;;;;;;1.00;0.75;;;;;;;24.54;36.82;101783.25;6227246;28;20050;-75
2023/06/05 12:48:16;;;;;;;1.95;1.15;;;;;;;24.80;33.37;101769.13;6226896;28;20053;-74
2023/06/05 12:51:17;;;;;;;2.80;1.10;;;;;;;25.21;33.36;101772.31;6226568;28;20443;-73
2023/06/05 12:54:20;;;;;;;1.52;0.93;;;;;;;25.36;35.62;101768.06;6227222;28;20335;-72
2023/06/05 12:57:21;;;;;;;2.05;1.00;;;;;;;25.29;31.01;101759.75;6227381;28;20046;-72
2023/06/05 13:00:23;;;;;;;2.08;0.98;;;;;;;25.21;32.52;101742.72;6226568;28;20172;-74
2023/06/05 13:03:24;;;;;;;1.55;0.98;;;;;;;25.15;33.75;101740.59;6226387;28;20395;-74
2023/06/05 13:06:27;;;;;;;0.88;0.77;;;;;;;25.58;32.88;101747.09;6223859;28;20046;-74
2023/06/05 13:09:30;;;;;;;1.42;1.00;;;;;;;25.82;34.30;101735.69;6226054;28;20050;-74
2023/06/05 13:12:31;;;;;;;3.92;1.92;;;;;;;25.83;34.41;101734.66;6226845;28;20053;-74
2023/06/05 13:15:33;;;;;;;1.65;0.93;;;;;;;25.43;33.65;101739.53;6226682;28;20046;-74
2023/06/05 13:18:35;;;;;;;2.83;1.27;;;;;;;25.51;35.98;101728.00;6225404;28;20052;-74
2023/06/05 13:21:36;;;;;;;1.98;1.00;;;;;;;25.33;34.30;101729.84;6221037;28;20050;-73
2023/06/05 13:24:39;;;;;;;1.20;0.80;;;;;;;25.49;34.82;101725.47;6216688;28;20056;-74
2023/06/05 13:27:40;;;;;;;1.52;0.98;;;;;;;25.68;34.74;101716.34;6225992;28;20358;-73
2023/06/05 13:30:42;;;;;;;1.00;0.90;;;;;;;25.52;34.28;101721.59;6225634;28;20316;-73
2023/06/05 13:33:43;;;;;;;1.35;0.90;;;;;;;25.34;33.40;101708.16;6226032;28;20049;-73
2023/06/05 13:36:44;;;;;;;1.17;0.80;;;;;;;25.26;35.06;101711.66;6225818;28;20060;-73
2023/06/05 13:39:47;;;;;;;1.58;0.95;;;;;;;25.01;33.71;101707.81;6225153;28;20358;-73
2023/06/05 13:42:51;;;;;;;1.67;0.95;;;;;;;24.83;35.19;101703.44;6225712;28;20057;-73
2023/06/05 13:45:52;;;;;;;1.10;0.70;;;;;;;24.76;34.99;101700.50;6225805;28;20099;-73
2023/06/05 13:48:56;;;;;;;1.95;1.05;;;;;;;24.65;34.05;101698.03;6225789;28;20058;-73
2023/06/05 13:51:58;;;;;;;0.95;0.80;;;;;;;24.56;33.33;101699.75;6225047;28;20054;-74
2023/06/05 13:55:00;;;;;;;1.00;0.88;;;;;;;24.46;34.88;101689.06;6225684;28;20390;-73
2023/06/05 13:58:02;;;;;;;1.55;0.90;;;;;;;24.87;34.46;101697.59;6226046;28;20052;-73
2023/06/05 14:01:03;;;;;;;1.73;0.85;;;;;;;25.03;35.32;101687.00;6224890;28;20054;-72
2023/06/05 14:04:05;;;;;;;1.35;0.90;;;;;;;25.07;34.83;101682.16;6225501;28;20394;-72
2023/06/05 14:07:06;;;;;;;3.22;1.65;;;;;;;24.97;36.58;101687.59;6225302;28;20362;-72